Time;durP1;ratioP1;P1;durP2;ratioP2;P2;SDS_P1;SDS_P2;PMS_P1;PMS_P2;Temp;Humidity;BMP_temperature;BMP_pressure;BME280_temperature;BME280_humidity;BME280_pressure;Samples;Min_cycle;Max_cycle;Signal;HPM_P1;HPM_P2
2023/05/22 00:02:03;;;;;;;30.63;20.67;;;17.20;99.90;;;;;;5006726;28;20038;-72
2023/05/22 00:04:29;;;;;;;32.83;23.77;;;17.30;99.90;;;;;;5007454;28;20042;-72
2023/05/22 00:06:55;;;;;;;31.50;23.60;;;17.10;99.90;;;;;;4989966;28;20060;-72
2023/05/22 00:09:23;;;;;;;31.30;23.40;;;17.20;99.90;;;;;;5003709;28;20041;-71
2023/05/22 00:11:49;;;;;;;28.95;22.00;;;17.30;99.90;;;;;;4986549;28;20050;-72
2023/05/22 00:14:15;;;;;;;34.67;23.35;;;17.20;99.90;;;;;;4989294;28;20054;-72
2023/05/22 00:16:41;;;;;;;29.35;22.08;;;;;;;;;;5007269;28;20068;-71
2023/05/22 00:19:11;;;;;;;30.98;22.40;;;17.30;99.90;;;;;;5007040;28;20508;-72
2023/05/22 00:21:38;;;;;;;29.88;21.88;;;17.20;99.90;;;;;;5006668;28;20400;-72
2023/05/22 00:24:04;;;;;;;30.10;23.25;;;17.20;99.90;;;;;;4989321;28;20385;-71
2023/05/22 00:26:30;;;;;;;35.20;23.70;;;17.10;99.90;;;;;;4988731;28;20053;-72
2023/05/22 00:28:56;;;;;;;34.85;26.35;;;;;;;;;;5006905;28;20045;-72
2023/05/22 00:31:22;;;;;;;29.10;22.08;;;17.20;99.90;;;;;;4989114;28;20082;-72
2023/05/22 00:33:48;;;;;;;33.83;23.40;;;17.10;99.90;;;;;;4988437;28;20050;-72
2023/05/22 00:36:14;;;;;;;30.20;22.38;;;17.10;99.90;;;;;;5006846;28;20050;-71
2023/05/22 00:38:39;;;;;;;27.27;20.88;;;17.00;99.90;;;;;;4988524;28;20049;-72
2023/05/22 00:41:06;;;;;;;29.23;22.70;;;17.00;99.90;;;;;;4988643;28;20049;-72
2023/05/22 00:43:32;;;;;;;31.10;22.38;;;17.00;99.90;;;;;;4988846;28;20081;-72
2023/05/22 00:45:58;;;;;;;29.27;22.42;;;17.10;99.90;;;;;;5006608;28;20041;-72
2023/05/22 00:48:24;;;;;;;28.33;23.08;;;17.20;99.90;;;;;;5003380;28;20037;-72
2023/05/22 00:50:51;;;;;;;32.65;24.10;;;17.10;99.90;;;;;;5004395;28;20087;-72
2023/05/22 00:53:20;;;;;;;32.38;25.42;;;17.10;99.90;;;;;;4988452;28;20072;-72
2023/05/22 00:55:46;;;;;;;35.65;26.95;;;17.20;99.90;;;;;;4988292;28;20057;-72
2023/05/22 00:58:15;;;;;;;35.55;24.55;;;17.00;99.90;;;;;;5003472;28;20054;-72
2023/05/22 01:00:42;;;;;;;38.85;25.15;;;17.10;99.90;;;;;;4972377;28;20416;-72
2023/05/22 01:03:08;;;;;;;32.92;24.05;;;17.20;99.90;;;;;;5006749;28;20403;-72
2023/05/22 01:05:39;;;;;;;33.00;25.23;;;17.20;99.90;;;;;;5005979;28;20535;-72
2023/05/22 01:08:06;;;;;;;29.65;22.98;;;17.00;99.90;;;;;;4987114;28;20045;-72
2023/05/22 01:10:33;;;;;;;35.88;24.98;;;17.00;99.90;;;;;;4985801;28;20045;-72
2023/05/22 01:13:24;;;;;;;35.08;23.45;;;17.20;99.90;;;;;;4988600;28;20053;-72
2023/05/22 01:16:20;;;;;;;30.17;23.35;;;17.00;99.90;;;;;;5005749;28;20077;-72
2023/05/22 01:19:17;;;;;;;31.27;24.30;;;17.00;99.90;;;;;;5003454;28;20042;-72
2023/05/22 01:22:20;;;;;;;34.42;25.30;;;16.90;99.90;;;;;;5002704;28;20041;-72
2023/05/22 01:25:03;;;;;;;31.35;24.45;;;17.00;99.90;;;;;;5000185;28;20515;-72
2023/05/22 01:27:57;;;;;;;34.30;26.65;;;16.90;99.90;;;;;;4987257;28;20049;-72
2023/05/22 01:31:01;;;;;;;32.10;24.90;;;16.80;99.90;;;;;;4987929;28;20057;-72
2023/05/22 01:33:30;;;;;;;34.55;25.63;;;16.80;99.90;;;;;;4983237;28;20511;-72
2023/05/22 01:35:58;;;;;;;34.72;25.50;;;16.80;99.90;;;;;;4985762;28;20490;-72
2023/05/22 01:38:24;;;;;;;37.00;26.88;;;;;;;;;;5002815;28;20033;-72
2023/05/22 01:40:50;;;;;;;34.88;26.38;;;16.90;99.90;;;;;;5002920;28;20042;-72
2023/05/22 01:43:17;;;;;;;35.05;25.95;;;17.00;99.90;;;;;;5006033;28;20037;-72
2023/05/22 01:45:43;;;;;;;38.00;27.33;;;;;;;;;;4987777;28;20045;-72
2023/05/22 01:48:08;;;;;;;40.05;26.40;;;16.80;99.90;;;;;;4985682;28;20072;-72
2023/05/22 01:50:34;;;;;;;33.50;25.83;;;16.80;99.90;;;;;;5003242;28;20207;-72
2023/05/22 01:53:12;;;;;;;34.65;26.25;;;16.80;99.90;;;;;;5005768;28;20048;-72
2023/05/22 01:55:49;;;;;;;35.65;26.45;;;17.00;99.90;;;;;;5004170;28;20056;-72
2023/05/22 01:58:20;;;;;;;32.20;24.90;;;16.80;99.90;;;;;;5006009;28;20100;-71
2023/05/22 02:00:48;;;;;;;37.10;23.85;;;16.80;99.90;;;;;;5005722;28;20044;-72
2023/05/22 02:03:18;;;;;;;35.70;25.50;;;16.70;99.90;;;;;;5009486;28;20041;-72
2023/05/22 02:05:47;;;;;;;35.13;25.05;;;16.80;99.90;;;;;;4992224;28;20053;-72
2023/05/22 02:08:13;;;;;;;36.60;25.88;;;16.80;99.90;;;;;;5009789;28;20046;-72
2023/05/22 02:10:41;;;;;;;29.88;24.15;;;16.90;99.90;;;;;;4991325;28;20045;-72
2023/05/22 02:13:07;;;;;;;40.53;27.20;;;16.80;99.90;;;;;;4991884;28;20432;-72
2023/05/22 02:15:33;;;;;;;33.17;26.20;;;;;;;;;;5009570;28;20046;-71
2023/05/22 02:17:59;;;;;;;36.20;26.80;;;16.80;99.90;;;;;;5009648;28;20046;-72
2023/05/22 02:20:24;;;;;;;37.13;27.13;;;16.60;99.90;;;;;;4991198;28;20064;-72
2023/05/22 02:22:50;;;;;;;33.47;26.08;;;;;;;;;;4992200;28;20053;-72
2023/05/22 02:25:16;;;;;;;34.72;27.08;;;;;;;;;;4991135;28;20048;-72
2023/05/22 02:27:43;;;;;;;33.80;26.13;;;16.70;99.90;;;;;;4989540;28;20041;-72
2023/05/22 02:30:10;;;;;;;33.80;27.23;;;16.80;99.90;;;;;;5006099;28;21533;-72
2023/05/22 02:32:36;;;;;;;35.58;26.05;;;;;;;;;;4991283;28;20056;-72
2023/05/22 02:35:03;;;;;;;39.22;28.38;;;16.70;99.90;;;;;;4991248;28;20046;-72
2023/05/22 02:37:29;;;;;;;34.88;27.42;;;;;;;;;;5008476;28;20046;-72
2023/05/22 02:39:55;;;;;;;37.05;27.33;;;16.60;99.90;;;;;;4991210;28;20049;-72
2023/05/22 02:42:21;;;;;;;34.97;26.77;;;;;;;;;;4990689;28;20914;-72
2023/05/22 02:44:46;;;;;;;36.22;26.48;;;16.60;99.90;;;;;;4990862;28;20081;-72
2023/05/22 02:47:12;;;;;;;42.65;28.42;;;16.60;99.90;;;;;;5008390;28;20044;-72
2023/05/22 02:49:37;;;;;;;34.58;26.73;;;16.60;99.90;;;;;;5009477;28;20089;-72
2023/05/22 02:52:03;;;;;;;36.17;25.92;;;;;;;;;;4990923;28;20423;-72
2023/05/22 02:54:29;;;;;;;37.13;28.48;;;;;;;;;;5009014;28;20042;-72
2023/05/22 02:56:55;;;;;;;37.92;26.83;;;;;;;;;;5008539;28;20072;-72
2023/05/22 02:59:21;;;;;;;38.08;27.50;;;;;;;;;;5004872;28;20046;-72
2023/05/22 03:01:47;;;;;;;37.33;28.27;;;16.60;99.90;;;;;;4990075;28;20046;-72
2023/05/22 03:04:13;;;;;;;36.97;27.38;;;16.70;99.90;;;;;;4990708;28;20412;-72
2023/05/22 03:06:39;;;;;;;37.60;27.48;;;;;;;;;;5008660;28;20049;-72
2023/05/22 03:09:05;;;;;;;32.33;25.02;;;;;;;;;;4983984;28;20045;-72
2023/05/22 03:11:31;;;;;;;31.60;24.98;;;16.60;99.90;;;;;;4988446;28;20203;-72
2023/05/22 03:13:57;;;;;;;39.35;28.65;;;;;;;;;;5008180;28;20488;-72
2023/05/22 03:16:23;;;;;;;34.20;25.85;;;16.70;99.90;;;;;;5008501;28;20060;-72
2023/05/22 03:18:49;;;;;;;33.95;26.65;;;16.70;99.90;;;;;;5008771;28;20049;-72
2023/05/22 03:21:15;;;;;;;38.70;30.10;;;;;;;;;;5008115;28;20042;-72
2023/05/22 03:23:41;;;;;;;35.42;27.73;;;16.70;99.90;;;;;;5008648;28;20092;-72
2023/05/22 03:26:07;;;;;;;38.70;28.65;;;;;;;;;;4990087;28;20048;-72
2023/05/22 03:28:33;;;;;;;33.72;28.02;;;16.50;99.90;;;;;;5008315;28;20060;-72
2023/05/22 03:30:59;;;;;;;36.33;27.60;;;;;;;;;;5008004;28;20550;-71
2023/05/22 03:33:25;;;;;;;35.83;26.52;;;;;;;;;;5007887;28;20037;-72
2023/05/22 03:35:52;;;;;;;33.40;27.17;;;16.60;99.90;;;;;;4990408;28;20791;-72
2023/05/22 03:38:18;;;;;;;36.70;27.45;;;;;;;;;;5004815;28;20038;-72
2023/05/22 03:40:43;;;;;;;38.35;29.30;;;16.60;99.90;;;;;;4988040;28;20042;-72
2023/05/22 03:43:09;;;;;;;39.80;31.13;;;16.60;99.90;;;;;;5008356;28;20064;-72
2023/05/22 03:45:35;;;;;;;36.72;28.83;;;;;;;;;;5007844;28;20491;-72
2023/05/22 03:48:01;;;;;;;36.17;28.40;;;;;;;;;;4988909;28;20045;-72
2023/05/22 03:50:26;;;;;;;37.65;26.67;;;16.50;99.90;;;;;;4987800;28;20038;-72
2023/05/22 03:52:52;;;;;;;38.22;27.58;;;16.50;99.90;;;;;;4990158;28;20048;-72
2023/05/22 03:55:18;;;;;;;35.08;27.10;;;;;;;;;;4989446;28;20408;-72
2023/05/22 03:57:43;;;;;;;32.75;26.38;;;16.60;99.90;;;;;;4988550;28;20041;-72
2023/05/22 04:00:11;;;;;;;35.35;26.88;;;16.60;99.90;;;;;;4987231;28;20049;-72
2023/05/22 04:02:37;;;;;;;33.63;26.27;;;16.60;99.90;;;;;;4989671;28;20049;-72
2023/05/22 04:05:06;;;;;;;36.00;26.38;;;16.60;99.90;;;;;;5007320;28;20420;-72
2023/05/22 04:07:32;;;;;;;37.30;29.52;;;16.60;99.90;;;;;;5007504;28;20396;-72
2023/05/22 04:09:57;;;;;;;33.65;27.70;;;16.70;99.90;;;;;;5007085;28;20125;-72
2023/05/22 04:12:23;;;;;;;40.25;30.27;;;16.70;99.90;;;;;;4973456;28;20080;-71
2023/05/22 04:14:48;;;;;;;48.92;31.25;;;16.60;99.90;;;;;;4988914;28;20554;-71
2023/05/22 04:17:14;;;;;;;41.65;29.75;;;16.70;99.90;;;;;;4989480;28;20467;-72
2023/05/22 04:19:40;;;;;;;39.38;29.73;;;16.70;99.90;;;;;;4989339;28;20046;-72
2023/05/22 04:22:05;;;;;;;36.28;27.80;;;16.70;99.90;;;;;;5006996;28;20099;-72
2023/05/22 04:24:31;;;;;;;41.97;30.55;;;16.60;99.90;;;;;;5006105;28;20042;-72
2023/05/22 04:26:59;;;;;;;34.17;27.65;;;;;;;;;;4989033;28;20096;-72
2023/05/22 04:29:25;;;;;;;39.60;28.73;;;16.80;99.90;;;;;;5006731;28;20095;-72
2023/05/22 04:31:56;;;;;;;40.88;27.45;;;;;;;;;;4989076;28;20052;-72
2023/05/22 04:34:23;;;;;;;43.88;31.52;;;16.70;99.90;;;;;;4980295;28;20064;-72
2023/05/22 04:36:48;;;;;;;37.60;29.55;;;16.70;99.90;;;;;;5006266;28;20038;-72
2023/05/22 04:39:14;;;;;;;42.22;30.80;;;16.70;99.90;;;;;;4988976;28;20165;-72
2023/05/22 04:41:40;;;;;;;36.85;29.13;;;;;;;;;;4988794;28;20109;-72
2023/05/22 04:44:06;;;;;;;40.55;30.48;;;16.70;99.90;;;;;;4989082;28;20779;-71
2023/05/22 04:46:33;;;;;;;37.95;30.40;;;;;;;;;;4988789;28;20085;-72
2023/05/22 04:48:59;;;;;;;37.72;30.08;;;16.70;99.90;;;;;;4986073;28;20049;-72
2023/05/22 04:51:26;;;;;;;34.08;28.45;;;16.70;99.90;;;;;;4987265;28;20401;-72
2023/05/22 04:53:54;;;;;;;34.95;29.17;;;;;;;;;;5006271;28;20049;-72
2023/05/22 04:56:21;;;;;;;40.35;30.45;;;16.70;99.90;;;;;;5005675;28;20048;-72
2023/05/22 04:58:50;;;;;;;39.88;29.42;;;;;;;;;;4988666;28;20048;-72
2023/05/22 05:01:15;;;;;;;43.10;31.75;;;16.70;99.90;;;;;;4986864;28;20559;-72
2023/05/22 05:03:42;;;;;;;37.95;28.52;;;16.80;99.90;;;;;;4988593;28;20048;-72
2023/05/22 05:06:08;;;;;;;42.33;29.85;;;;;;;;;;4988317;28;20045;-72
2023/05/22 05:08:34;;;;;;;38.38;27.65;;;;;;;;;;4988752;28;20046;-72
2023/05/22 05:10:59;;;;;;;41.15;29.85;;;16.70;99.90;;;;;;5006178;28;20120;-72
2023/05/22 05:13:25;;;;;;;40.55;28.92;;;;;;;;;;5006548;28;20798;-72
2023/05/22 05:15:51;;;;;;;39.92;31.10;;;;;;;;;;4987896;28;20053;-72
2023/05/22 05:18:18;;;;;;;38.45;29.60;;;16.80;99.90;;;;;;5005806;28;20081;-72
2023/05/22 05:20:45;;;;;;;34.70;29.52;;;;;;;;;;5006084;28;20038;-72
2023/05/22 05:23:10;;;;;;;43.90;30.33;;;16.70;99.90;;;;;;5006111;28;20042;-71
2023/05/22 05:25:39;;;;;;;37.72;29.42;;;;;;;;;;5005878;28;20108;-72
2023/05/22 05:28:10;;;;;;;41.38;29.55;;;16.70;99.90;;;;;;4986061;28;20045;-72
2023/05/22 05:30:39;;;;;;;37.30;28.35;;;16.80;99.90;;;;;;4985726;28;20053;-72
2023/05/22 05:33:05;;;;;;;37.97;29.02;;;;;;;;;;5005845;28;20205;-72
2023/05/22 05:35:31;;;;;;;43.63;28.58;;;16.80;99.90;;;;;;4987316;28;20061;-72
2023/05/22 05:37:57;;;;;;;42.65;30.40;;;;;;;;;;4986466;28;20783;-71
2023/05/22 05:40:23;;;;;;;43.28;30.75;;;16.80;99.90;;;;;;4985554;28;20045;-72
2023/05/22 05:42:48;;;;;;;46.00;29.55;;;16.90;99.90;;;;;;5005802;28;20049;-72
2023/05/22 05:45:14;;;;;;;45.63;29.02;;;;;;;;;;4987672;28;20053;-72
2023/05/22 05:47:40;;;;;;;37.10;27.88;;;16.80;99.90;;;;;;4986382;28;20385;-72
2023/05/22 05:50:06;;;;;;;40.25;29.00;;;;;;;;;;4985567;28;20053;-72
2023/05/22 05:52:32;;;;;;;41.88;30.70;;;17.00;99.90;;;;;;5005288;28;20463;-72
2023/05/22 05:54:59;;;;;;;38.88;28.10;;;16.80;99.90;;;;;;5005767;28;20038;-72
2023/05/22 05:57:29;;;;;;;34.13;27.13;;;17.00;99.90;;;;;;5006004;28;20381;-72
2023/05/22 05:59:55;;;;;;;34.25;27.30;;;;;;;;;;5005262;28;20125;-72
2023/05/22 06:02:21;;;;;;;34.85;28.42;;;16.90;99.90;;;;;;4988306;28;20449;-72
2023/05/22 06:04:47;;;;;;;38.67;28.42;;;16.90;99.90;;;;;;5005758;28;20069;-72
2023/05/22 06:07:13;;;;;;;32.17;24.98;;;16.90;99.90;;;;;;5005843;28;20042;-72
2023/05/22 06:09:39;;;;;;;34.92;27.23;;;;;;;;;;5005731;28;20038;-72
2023/05/22 06:12:05;;;;;;;42.30;27.98;;;;;;;;;;4987978;28;20116;-72
2023/05/22 06:14:31;;;;;;;38.33;25.80;;;17.10;99.90;;;;;;4995645;28;20045;-72
2023/05/22 06:16:57;;;;;;;36.53;27.00;;;17.10;99.90;;;;;;4999177;28;20084;-72
2023/05/22 06:19:22;;;;;;;33.80;23.95;;;17.00;99.90;;;;;;5004026;28;20580;-72
2023/05/22 06:21:48;;;;;;;32.10;21.02;;;17.10;99.90;;;;;;4980609;28;20100;-71
2023/05/22 06:24:13;;;;;;;26.90;19.75;;;17.10;99.90;;;;;;5005336;28;20103;-72
2023/05/22 06:26:39;;;;;;;29.52;16.67;;;17.20;99.90;;;;;;4984873;28;20049;-72
2023/05/22 06:29:05;;;;;;;25.73;17.52;;;;;;;;;;4980956;28;20512;-72
2023/05/22 06:31:34;;;;;;;23.27;14.73;;;;;;;;;;5000176;28;20045;-72
2023/05/22 06:34:00;;;;;;;24.48;13.65;;;;;;;;;;5003703;28;20132;-72
2023/05/22 06:36:26;;;;;;;24.88;13.73;;;;;;;;;;5003729;28;20568;-72
2023/05/22 06:38:53;;;;;;;22.95;11.98;;;17.20;99.90;;;;;;5003285;28;20120;-71
2023/05/22 06:41:20;;;;;;;21.83;11.27;;;;;;;;;;4985372;28;20050;-70
2023/05/22 06:43:46;;;;;;;22.90;12.02;;;;;;;;;;5004593;28;20096;-70
2023/05/22 06:46:11;;;;;;;19.48;12.07;;;17.10;99.90;;;;;;4988641;28;20046;-69
2023/05/22 06:48:37;;;;;;;23.90;11.23;;;;;;;;;;5006209;28;20037;-70
2023/05/22 06:51:03;;;;;;;21.05;10.57;;;;;;;;;;4990989;28;20083;-71
2023/05/22 06:53:29;;;;;;;23.02;11.82;;;17.20;99.90;;;;;;5008432;28;20377;-71
2023/05/22 06:55:55;;;;;;;24.30;12.50;;;17.10;99.90;;;;;;5008597;28;20044;-73
2023/05/22 06:58:21;;;;;;;24.55;12.70;;;;;;;;;;5007979;28;20100;-72
2023/05/22 07:00:47;;;;;;;25.48;12.13;;;17.30;99.90;;;;;;4991818;28;20538;-71
2023/05/22 07:03:12;;;;;;;19.02;12.57;;;17.30;99.90;;;;;;4987614;28;20042;-71
2023/05/22 07:05:38;;;;;;;27.55;14.30;;;;;;;;;;4989345;28;20041;-71
2023/05/22 07:08:05;;;;;;;24.25;12.43;;;17.30;99.90;;;;;;5005011;28;20537;-71
2023/05/22 07:10:31;;;;;;;20.70;12.35;;;;;;;;;;4986251;28;20613;-71
2023/05/22 07:12:57;;;;;;;23.73;12.73;;;;;;;;;;4984200;28;20165;-72
2023/05/22 07:15:23;;;;;;;23.85;12.52;;;;;;;;;;4987433;28;20814;-71
2023/05/22 07:17:49;;;;;;;28.33;13.10;;;;;;;;;;5003233;28;20049;-70
2023/05/22 07:20:15;;;;;;;27.42;12.15;;;17.50;99.90;;;;;;5007834;28;20551;-73
2023/05/22 07:22:41;;;;;;;19.98;10.63;;;;;;;;;;5007153;28;20076;-72
2023/05/22 07:25:07;;;;;;;22.50;11.88;;;;;;;;;;4990072;28;20507;-73
2023/05/22 07:27:33;;;;;;;22.02;10.32;;;;;;;;;;4989328;28;20046;-72
2023/05/22 07:29:59;;;;;;;19.00;10.35;;;;;;;;;;4985145;28;20574;-72
2023/05/22 07:32:25;;;;;;;17.67;9.57;;;17.30;99.90;;;;;;4987973;28;20041;-71
2023/05/22 07:34:51;;;;;;;20.17;9.80;;;17.50;99.90;;;;;;4981226;28;20049;-70
2023/05/22 07:37:17;;;;;;;23.02;10.85;;;;;;;;;;4987633;28;20483;-70
2023/05/22 07:39:45;;;;;;;16.60;9.50;;;;;;;;;;4990346;28;20046;-71
2023/05/22 07:42:13;;;;;;;22.63;8.63;;;;;;;;;;5005615;28;20045;-71
2023/05/22 07:44:39;;;;;;;17.67;9.85;;;;;;;;;;5007837;28;20526;-72
2023/05/22 07:47:05;;;;;;;16.92;8.27;;;;;;;;;;4990613;28;20042;-72
2023/05/22 07:49:31;;;;;;;14.32;8.30;;;17.30;99.90;;;;;;5004193;28;20037;-72
2023/05/22 07:51:57;;;;;;;22.23;7.90;;;;;;;;;;5007212;28;20050;-72
2023/05/22 07:54:23;;;;;;;17.70;7.57;;;;;;;;;;4992234;28;20042;-72
2023/05/22 07:56:50;;;;;;;13.75;7.20;;;;;;;;;;4994416;28;20133;-71
2023/05/22 07:59:18;;;;;;;14.05;7.40;;;17.40;99.90;;;;;;4990328;28;20053;-71
2023/05/22 08:01:44;;;;;;;16.42;7.47;;;;;;;;;;4990428;28;20045;-71
2023/05/22 08:04:10;;;;;;;14.07;7.03;;;17.50;99.90;;;;;;5006675;28;20511;-74
2023/05/22 08:06:35;;;;;;;14.75;6.90;;;17.60;99.90;;;;;;4989755;28;20037;-70
2023/05/22 08:09:01;;;;;;;15.35;7.20;;;17.50;99.90;;;;;;5004081;28;20026;-70
2023/05/22 08:11:27;;;;;;;20.15;7.75;;;17.70;99.90;;;;;;4986659;28;20042;-70
2023/05/22 08:13:53;;;;;;;16.25;7.95;;;17.80;99.90;;;;;;5006185;28;20073;-70
2023/05/22 08:16:19;;;;;;;14.40;7.20;;;;;;;;;;4984460;28;20451;-70
2023/05/22 08:18:45;;;;;;;15.45;8.75;;;18.00;99.90;;;;;;4985821;28;20103;-70
2023/05/22 08:21:10;;;;;;;12.65;7.22;;;18.10;99.90;;;;;;5005071;28;20395;-70
2023/05/22 08:23:37;;;;;;;15.40;7.40;;;18.20;99.90;;;;;;4985790;28;20101;-70
2023/05/22 08:26:03;;;;;;;18.42;7.63;;;;;;;;;;5005120;28;20057;-70
2023/05/22 08:28:29;;;;;;;12.40;6.63;;;;;;;;;;5001322;28;20466;-70
2023/05/22 08:30:55;;;;;;;13.27;7.45;;;;;;;;;;5003166;28;20045;-69
2023/05/22 08:33:21;;;;;;;14.15;7.68;;;18.70;99.90;;;;;;4981865;28;20389;-70
2023/05/22 08:35:46;;;;;;;15.68;7.80;;;18.90;99.90;;;;;;4985007;28;20058;-70
2023/05/22 08:38:12;;;;;;;15.68;8.27;;;18.90;99.90;;;;;;4992873;28;20050;-70
2023/05/22 08:40:39;;;;;;;13.50;7.90;;;19.20;99.90;;;;;;4988237;28;20042;-70
2023/05/22 08:43:05;;;;;;;14.18;7.90;;;19.40;99.90;;;;;;4989017;28;20049;-70
2023/05/22 08:45:33;;;;;;;15.52;8.25;;;19.60;99.90;;;;;;4992993;28;20050;-69
2023/05/22 08:48:03;;;;;;;18.52;8.48;;;19.70;99.90;;;;;;4985183;28;20377;-70
2023/05/22 08:50:29;;;;;;;15.68;8.60;;;19.80;99.90;;;;;;4986646;28;20049;-71
2023/05/22 08:52:58;;;;;;;20.70;8.77;;;19.80;99.90;;;;;;5000960;28;20049;-70
2023/05/22 08:55:24;;;;;;;16.33;8.13;;;19.80;99.90;;;;;;4987844;28;20121;-70
2023/05/22 08:57:51;;;;;;;13.88;8.18;;;20.10;99.90;;;;;;4987332;28;20042;-70
2023/05/22 09:00:18;;;;;;;13.48;8.25;;;20.00;99.90;;;;;;4989633;28;20052;-70
2023/05/22 09:02:45;;;;;;;19.67;8.85;;;20.20;99.90;;;;;;5003576;28;20640;-70
2023/05/22 09:05:11;;;;;;;12.95;8.25;;;20.10;99.90;;;;;;5003523;28;20052;-70
2023/05/22 09:07:38;;;;;;;16.20;8.70;;;21.20;99.90;;;;;;4986708;28;20065;-70
2023/05/22 09:10:05;;;;;;;12.07;9.38;;;20.40;99.90;;;;;;5007073;28;20049;-70
2023/05/22 09:12:32;;;;;;;17.35;9.05;;;20.40;99.90;;;;;;4986932;28;20054;-70
2023/05/22 09:15:09;;;;;;;15.73;9.02;;;20.40;99.90;;;;;;5002717;28;20092;-70
2023/05/22 09:17:38;;;;;;;16.52;9.38;;;20.60;99.90;;;;;;5001785;28;20041;-70
2023/05/22 09:20:05;;;;;;;18.95;9.70;;;20.50;99.90;;;;;;5002045;28;20514;-70
2023/05/22 09:22:37;;;;;;;14.23;9.35;;;20.60;99.90;;;;;;5002522;28;20081;-70
2023/05/22 09:25:03;;;;;;;19.73;9.65;;;20.30;99.90;;;;;;4985773;28;20038;-70
2023/05/22 09:27:28;;;;;;;22.23;9.40;;;20.30;99.90;;;;;;4986665;28;20127;-70
2023/05/22 09:29:56;;;;;;;16.52;9.80;;;20.40;99.90;;;;;;4986445;28;20057;-70
2023/05/22 09:32:22;;;;;;;15.65;10.45;;;20.50;99.90;;;;;;4987343;28;20058;-70
2023/05/22 09:34:48;;;;;;;16.58;9.75;;;20.60;99.90;;;;;;5003570;28;20057;-71
2023/05/22 09:37:14;;;;;;;14.63;10.25;;;20.60;99.90;;;;;;5002359;28;20046;-70
2023/05/22 09:39:45;;;;;;;17.42;10.25;;;20.50;99.90;;;;;;4987391;28;20128;-70
2023/05/22 09:42:14;;;;;;;16.95;10.15;;;20.70;99.90;;;;;;5003620;28;20100;-70
2023/05/22 09:44:43;;;;;;;16.38;9.38;;;20.80;99.90;;;;;;4988508;28;20507;-70
2023/05/22 09:47:10;;;;;;;13.65;9.35;;;21.20;99.90;;;;;;4985472;28;20046;-70
2023/05/22 09:49:45;;;;;;;19.38;10.18;;;20.90;99.90;;;;;;4983934;28;20055;-70
2023/05/22 09:52:11;;;;;;;21.40;9.68;;;21.10;99.90;;;;;;4985844;28;20050;-70
2023/05/22 09:54:59;;;;;;;15.93;9.40;;;21.50;99.90;;;;;;5005985;28;20073;-70
2023/05/22 09:57:26;;;;;;;16.50;10.15;;;21.60;99.90;;;;;;5003687;28;20049;-70
2023/05/22 09:59:57;;;;;;;13.52;9.68;;;21.30;99.90;;;;;;5002108;28;20037;-70
2023/05/22 10:02:24;;;;;;;14.60;10.63;;;21.40;99.90;;;;;;5003798;28;20492;-70
2023/05/22 10:04:51;;;;;;;13.45;9.85;;;21.40;99.90;;;;;;5001611;28;20077;-70
2023/05/22 10:07:34;;;;;;;17.52;9.85;;;21.40;99.90;;;;;;5006047;28;20498;-71
2023/05/22 10:10:06;;;;;;;16.45;10.60;;;23.10;99.90;;;;;;4985511;28;20041;-70
2023/05/22 10:12:32;;;;;;;16.95;10.57;;;21.50;99.90;;;;;;4987967;28;20049;-70
2023/05/22 10:15:01;;;;;;;16.13;10.02;;;21.70;99.90;;;;;;4988983;28;20077;-72
2023/05/22 10:17:27;;;;;;;17.08;10.90;;;23.20;99.90;;;;;;4988548;28;20073;-71
2023/05/22 10:19:55;;;;;;;13.88;10.43;;;21.60;99.90;;;;;;5001071;28;20369;-70
2023/05/22 10:22:22;;;;;;;19.27;11.07;;;21.60;99.90;;;;;;4989793;28;20048;-70
2023/05/22 10:24:48;;;;;;;15.80;10.57;;;21.70;99.90;;;;;;5003121;28;20373;-70
2023/05/22 10:27:14;;;;;;;15.35;10.25;;;21.70;99.90;;;;;;5005821;28;20433;-70
2023/05/22 10:29:54;;;;;;;18.48;11.30;;;22.00;99.90;;;;;;4983709;28;20061;-70
2023/05/22 10:32:42;;;;;;;18.23;10.02;;;23.30;99.90;;;;;;4988417;28;20050;-72
2023/05/22 10:35:24;;;;;;;16.15;10.55;;;22.40;99.90;;;;;;4987529;28;20068;-72
2023/05/22 10:38:03;;;;;;;18.65;9.95;;;22.50;99.90;;;;;;5006502;28;20054;-71
2023/05/22 10:40:32;;;;;;;15.00;10.27;;;22.40;99.90;;;;;;5005445;28;20052;-72
2023/05/22 10:42:59;;;;;;;13.63;10.52;;;22.60;99.90;;;;;;5008335;28;20037;-72
2023/05/22 10:45:27;;;;;;;13.30;10.30;;;22.80;99.90;;;;;;5006325;28;20038;-72
2023/05/22 10:48:11;;;;;;;16.38;10.55;;;22.90;99.90;;;;;;4997542;28;20567;-71
2023/05/22 10:50:38;;;;;;;14.13;10.43;;;22.60;99.90;;;;;;5004937;28;20053;-71
2023/05/22 10:53:25;;;;;;;10.85;9.68;;;22.70;99.90;;;;;;4986027;28;20160;-70
2023/05/22 10:55:55;;;;;;;14.40;9.05;;;22.70;99.90;;;;;;4985438;28;20041;-70
2023/05/22 10:58:26;;;;;;;13.65;9.85;;;22.70;99.90;;;;;;5007243;28;20112;-71
2023/05/22 11:01:12;;;;;;;14.70;9.77;;;23.00;99.90;;;;;;4990939;28;20046;-70
2023/05/22 11:03:56;;;;;;;15.43;10.77;;;22.90;99.90;;;;;;5005371;28;20042;-71
2023/05/22 11:06:40;;;;;;;16.07;10.30;;;23.20;99.90;;;;;;5004825;28;20412;-70
2023/05/22 11:09:28;;;;;;;15.10;10.80;;;23.30;99.90;;;;;;4988520;28;20315;-70
2023/05/22 11:12:23;;;;;;;18.33;12.20;;;23.30;99.90;;;;;;4995364;28;20045;-70
2023/05/22 11:14:58;;;;;;;14.45;11.82;;;23.20;99.90;;;;;;5002487;28;20070;-71
2023/05/22 11:17:29;;;;;;;16.55;10.40;;;22.80;99.90;;;;;;4986784;28;20460;-70
2023/05/22 11:20:04;;;;;;;14.23;10.48;;;22.70;99.90;;;;;;4998412;28;20026;-70
2023/05/22 11:22:33;;;;;;;16.10;11.00;;;23.00;99.90;;;;;;4989041;28;20053;-71
2023/05/22 11:25:03;;;;;;;15.05;11.38;;;22.80;99.90;;;;;;4989683;28;20052;-71
2023/05/22 11:27:29;;;;;;;18.05;11.93;;;24.80;99.90;;;;;;4986492;28;20050;-70
2023/05/22 11:29:55;;;;;;;17.05;11.38;;;22.80;99.90;;;;;;5004054;28;20636;-69
2023/05/22 11:32:23;;;;;;;14.95;11.10;;;23.00;99.90;;;;;;5004875;28;20128;-70
2023/05/22 11:34:49;;;;;;;15.82;12.23;;;22.80;99.90;;;;;;5004194;28;20516;-70
2023/05/22 11:37:17;;;;;;;18.50;12.10;;;22.90;99.90;;;;;;4989524;28;20687;-70
2023/05/22 11:39:54;;;;;;;15.80;11.02;;;24.30;99.90;;;;;;5005804;28;20043;-70
2023/05/22 11:42:20;;;;;;;15.73;10.65;;;23.00;99.90;;;;;;5004481;28;20271;-70
2023/05/22 11:44:46;;;;;;;15.75;10.50;;;23.00;99.90;;;;;;4989572;28;20488;-71
2023/05/22 11:47:12;;;;;;;15.15;10.48;;;23.10;99.90;;;;;;4988559;28;20042;-70
2023/05/22 11:49:40;;;;;;;24.23;12.73;;;22.80;99.90;;;;;;4992556;28;20044;-70
2023/05/22 11:52:06;;;;;;;18.08;11.38;;;22.90;99.90;;;;;;4997120;28;20046;-70
2023/05/22 11:54:32;;;;;;;18.17;10.80;;;23.20;99.90;;;;;;4976523;28;20484;-70
2023/05/22 11:56:58;;;;;;;15.00;9.88;;;23.20;99.90;;;;;;5004761;28;20034;-70
2023/05/22 11:59:23;;;;;;;18.92;12.07;;;23.20;99.90;;;;;;4984436;28;20049;-71
2023/05/22 12:01:49;;;;;;;16.17;11.80;;;23.10;99.90;;;;;;5005481;28;20045;-70
2023/05/22 12:04:15;;;;;;;18.20;12.80;;;23.30;99.90;;;;;;5005187;28;20089;-70
2023/05/22 12:06:41;;;;;;;17.58;11.00;;;23.50;99.90;;;;;;4983671;28;20046;-70
2023/05/22 12:09:07;;;;;;;14.40;10.20;;;23.60;99.90;;;;;;5002085;28;20042;-70
2023/05/22 12:11:36;;;;;;;15.27;10.70;;;23.50;99.90;;;;;;4986685;28;20125;-70
2023/05/22 12:14:03;;;;;;;14.73;10.77;;;24.60;99.90;;;;;;5005220;28;20046;-70
2023/05/22 12:16:35;;;;;;;13.95;10.07;;;23.50;99.90;;;;;;5004758;28;20045;-70
2023/05/22 12:19:06;;;;;;;19.92;11.70;;;24.80;99.90;;;;;;4988247;28;20507;-70
2023/05/22 12:21:32;;;;;;;16.58;10.88;;;23.50;99.90;;;;;;5003539;28;20068;-70
2023/05/22 12:24:02;;;;;;;16.38;12.75;;;23.70;99.90;;;;;;5005323;28;20739;-70
2023/05/22 12:26:28;;;;;;;16.73;11.90;;;23.90;99.90;;;;;;4986863;28;20038;-70
2023/05/22 12:28:56;;;;;;;21.23;12.32;;;23.80;99.90;;;;;;4984899;28;20159;-70
2023/05/22 12:31:22;;;;;;;21.70;11.45;;;24.00;99.90;;;;;;5002467;28;20046;-70
2023/05/22 12:33:48;;;;;;;16.50;11.52;;;23.80;99.90;;;;;;5001326;28;20054;-70
2023/05/22 12:36:13;;;;;;;18.63;12.95;;;23.60;99.90;;;;;;5004157;28;20069;-70
2023/05/22 12:38:39;;;;;;;19.73;13.00;;;23.50;99.90;;;;;;4987322;28;20265;-70
2023/05/22 12:41:05;;;;;;;17.30;13.18;;;23.20;99.90;;;;;;4984732;28;20038;-70
2023/05/22 12:43:31;;;;;;;18.40;12.55;;;23.10;99.90;;;;;;5004229;28;20119;-70
2023/05/22 12:45:57;;;;;;;22.23;12.85;;;23.10;99.90;;;;;;4990531;28;20045;-70
2023/05/22 12:48:22;;;;;;;19.67;13.63;;;23.20;99.90;;;;;;4985219;28;20049;-70
2023/05/22 12:50:48;;;;;;;17.48;13.40;;;23.10;99.90;;;;;;5002388;28;20153;-70
2023/05/22 12:53:14;;;;;;;17.55;14.15;;;22.90;99.90;;;;;;4988619;28;20065;-70
2023/05/22 12:55:40;;;;;;;19.00;13.15;;;23.00;99.90;;;;;;5004220;28;20165;-70
2023/05/22 12:58:06;;;;;;;21.70;14.32;;;22.70;99.90;;;;;;5004428;28;20053;-70